Terminal Aerodrome Forecast
Issued by NWS

Home | Current Version | Previous Version | Text Only | Print | Product List | Glossary On
Versions: 1 2 3 4 5 6 7 8 9 10 11 12 13 14 15 16 17 18
000
FTUS43 KGLD 261135
TAFMCK
TAF
KMCK 261135Z 2612/2712 00000KT 6SM BR OVC100
     FM261500 12007KT P6SM BKN150
     FM261900 12008KT P6SM VCTS BKN120CB
     FM262100 12009KT P6SM -TSRA OVC050CB
      TEMPO 2622/2702 4SM +TSRA OVC035CB
     FM270300 12006KT P6SM BKN070
     FM270600 VRB03KT 6SM BR BKN015
     FM271100 VRB03KT 3SM BR BKN008=

USA.gov is the U.S. government's official web portal to all federal, state and local government web resources and services.